Time;durP1;ratioP1;P1;durP2;ratioP2;P2;SDS_P1;SDS_P2;PMS_P1;PMS_P2;Temp;Humidity;BMP_temperature;BMP_pressure;BME280_temperature;BME280_humidity;BME280_pressure;Samples;Min_cycle;Max_cycle;Signal;HPM_P1;HPM_P2
2021/03/10 00:00:08;;;;;;;18.80;13.83;;;8.80;96.50;;;;;;5056188;28;20243;-62
2021/03/10 00:02:35;;;;;;;17.50;12.90;;;8.80;96.50;;;;;;5055917;28;20209;-61
2021/03/10 00:05:02;;;;;;;18.60;13.97;;;8.70;96.70;;;;;;5055864;28;20216;-62
2021/03/10 00:07:28;;;;;;;15.77;13.20;;;8.70;96.60;;;;;;5056348;28;20226;-62
2021/03/10 00:09:55;;;;;;;19.23;14.70;;;8.70;96.70;;;;;;5058440;28;20209;-62
2021/03/10 00:12:21;;;;;;;22.10;14.97;;;8.70;96.80;;;;;;5056367;28;20202;-62
2021/03/10 00:14:47;;;;;;;20.20;15.07;;;8.80;96.80;;;;;;5054715;28;20210;-61
2021/03/10 00:17:13;;;;;;;21.73;15.67;;;8.80;96.60;;;;;;5054702;28;20636;-62
2021/03/10 00:19:41;;;;;;;21.33;15.63;;;8.80;96.60;;;;;;5054559;28;20578;-61
2021/03/10 00:22:08;;;;;;;20.03;15.33;;;8.80;96.60;;;;;;5055384;28;20237;-62
2021/03/10 00:24:34;;;;;;;21.47;16.40;;;8.80;96.60;;;;;;5054967;28;20212;-62
2021/03/10 00:27:01;;;;;;;20.07;15.30;;;8.80;96.80;;;;;;5055071;28;20226;-62
2021/03/10 00:29:27;;;;;;;21.77;15.73;;;8.80;96.80;;;;;;5054330;28;20273;-62
2021/03/10 00:31:53;;;;;;;23.20;16.90;;;8.70;96.70;;;;;;5054228;28;20210;-61
2021/03/10 00:34:19;;;;;;;21.17;15.00;;;8.80;96.80;;;;;;5054072;28;20206;-61
2021/03/10 00:36:45;;;;;;;20.60;15.57;;;8.80;96.80;;;;;;5053765;28;20226;-62
2021/03/10 00:39:12;;;;;;;22.43;16.17;;;8.80;96.90;;;;;;5053435;28;20677;-62
2021/03/10 00:41:38;;;;;;;24.73;16.93;;;8.80;96.90;;;;;;5054431;28;20205;-61
2021/03/10 00:44:05;;;;;;;23.60;16.80;;;8.80;97.00;;;;;;5054118;28;20206;-61
2021/03/10 00:46:31;;;;;;;27.00;17.40;;;8.70;97.20;;;;;;5054104;28;20201;-61
2021/03/10 00:48:58;;;;;;;23.40;17.13;;;8.70;97.30;;;;;;5053877;28;20209;-61
2021/03/10 00:51:24;;;;;;;22.77;16.90;;;8.70;97.40;;;;;;5054133;28;20214;-61
2021/03/10 00:53:50;;;;;;;24.00;17.10;;;8.70;97.40;;;;;;5053648;28;20482;-62
2021/03/10 00:56:17;;;;;;;24.10;16.97;;;8.60;97.50;;;;;;5053956;28;20225;-62
2021/03/10 00:58:43;;;;;;;27.03;17.90;;;8.60;97.50;;;;;;5053189;28;20657;-61
2021/03/10 01:01:10;;;;;;;25.73;18.90;;;8.60;97.50;;;;;;5053214;28;20202;-61
2021/03/10 01:03:37;;;;;;;23.40;17.43;;;8.60;97.60;;;;;;5053030;28;20209;-61
2021/03/10 01:06:03;;;;;;;24.97;17.37;;;8.50;97.90;;;;;;5053348;28;20212;-62
2021/03/10 01:08:29;;;;;;;21.33;16.37;;;8.60;97.90;;;;;;5052630;28;20704;-61
2021/03/10 01:10:55;;;;;;;24.70;17.17;;;8.60;97.90;;;;;;5052922;28;20233;-62
2021/03/10 01:13:22;;;;;;;22.50;16.57;;;8.60;97.90;;;;;;5053011;28;20263;-61
2021/03/10 01:15:48;;;;;;;22.97;17.40;;;8.60;97.70;;;;;;5053062;28;20210;-61
2021/03/10 01:18:14;;;;;;;23.00;17.17;;;8.60;97.80;;;;;;5052492;28;20717;-61
2021/03/10 01:20:41;;;;;;;25.20;17.63;;;8.60;97.90;;;;;;5053411;28;20210;-61
2021/03/10 01:23:07;;;;;;;24.37;18.27;;;8.60;98.00;;;;;;5052819;28;20201;-61
2021/03/10 01:25:33;;;;;;;23.53;17.60;;;8.60;97.90;;;;;;5052741;28;20213;-61
2021/03/10 01:27:59;;;;;;;25.83;18.17;;;8.60;97.90;;;;;;5052883;28;20225;-61
2021/03/10 01:30:27;;;;;;;23.97;16.97;;;8.60;97.90;;;;;;5052867;28;20202;-61
2021/03/10 01:32:53;;;;;;;24.90;17.77;;;8.60;98.10;;;;;;5052966;28;20259;-61
2021/03/10 01:35:19;;;;;;;26.23;17.73;;;8.60;98.20;;;;;;5053576;28;20209;-61
2021/03/10 01:37:45;;;;;;;24.90;17.70;;;8.60;98.20;;;;;;5052893;28;20770;-62
2021/03/10 01:40:14;;;;;;;24.37;18.57;;;8.60;98.10;;;;;;5052253;28;20206;-61
2021/03/10 01:42:41;;;;;;;25.70;17.40;;;8.70;98.20;;;;;;5053501;28;20209;-62
2021/03/10 01:45:09;;;;;;;23.47;17.70;;;8.60;98.00;;;;;;5052957;28;20681;-61
2021/03/10 01:47:39;;;;;;;26.50;17.83;;;8.60;98.10;;;;;;5053467;28;20271;-61
2021/03/10 01:50:07;;;;;;;23.70;18.23;;;8.50;98.20;;;;;;5054502;28;20206;-61
2021/03/10 01:52:34;;;;;;;28.10;19.20;;;8.50;98.20;;;;;;5053868;28;20205;-61
2021/03/10 01:55:00;;;;;;;26.97;18.30;;;8.50;98.30;;;;;;5053654;28;20201;-61
2021/03/10 01:57:26;;;;;;;26.07;18.67;;;8.50;98.40;;;;;;5053709;28;20647;-61
2021/03/10 01:59:53;;;;;;;26.40;19.13;;;8.50;98.40;;;;;;5053188;28;20210;-62
2021/03/10 02:02:19;;;;;;;24.13;18.60;;;8.40;98.40;;;;;;5052076;28;20213;-62
2021/03/10 02:04:46;;;;;;;29.60;19.07;;;8.40;98.50;;;;;;5052186;28;20213;-62
2021/03/10 02:07:20;;;;;;;26.27;19.83;;;8.40;98.60;;;;;;5052311;28;20225;-62
2021/03/10 02:09:57;;;;;;;29.03;20.37;;;8.40;98.70;;;;;;5051806;28;20688;-61
2021/03/10 02:12:29;;;;;;;27.23;19.93;;;8.30;98.70;;;;;;5051638;28;20213;-61
2021/03/10 02:15:02;;;;;;;27.67;20.23;;;8.40;98.80;;;;;;5051796;28;20374;-61
2021/03/10 02:17:36;;;;;;;29.20;19.90;;;8.40;98.80;;;;;;5051725;28;20280;-61
2021/03/10 02:20:27;;;;;;;28.10;20.80;;;8.40;98.80;;;;;;5051645;28;20238;-61
2021/03/10 02:23:28;;;;;;;28.37;20.53;;;8.40;98.80;;;;;;5048240;28;20271;-61
2021/03/10 02:26:18;;;;;;;28.13;20.47;;;8.40;98.80;;;;;;5040891;28;20217;-61
2021/03/10 02:28:46;;;;;;;27.63;19.43;;;8.50;98.80;;;;;;5051170;28;20233;-61
2021/03/10 02:31:13;;;;;;;30.13;20.73;;;8.50;98.80;;;;;;5051509;28;20209;-61
2021/03/10 02:33:40;;;;;;;29.03;20.90;;;8.50;98.70;;;;;;5051413;28;20205;-61
2021/03/10 02:36:10;;;;;;;32.03;20.67;;;8.50;98.70;;;;;;5051635;28;20255;-61
2021/03/10 02:38:40;;;;;;;27.60;20.43;;;8.50;98.70;;;;;;5051103;28;20255;-61
2021/03/10 02:41:07;;;;;;;29.67;20.47;;;8.40;98.70;;;;;;5051314;28;20809;-61
2021/03/10 02:43:34;;;;;;;30.13;20.80;;;8.40;98.80;;;;;;5051081;28;20206;-61
2021/03/10 02:46:05;;;;;;;29.17;21.20;;;8.40;98.80;;;;;;5051562;28;20259;-61
2021/03/10 02:48:32;;;;;;;29.53;20.63;;;8.40;98.80;;;;;;5051392;28;20229;-62
2021/03/10 02:50:58;;;;;;;29.13;20.33;;;8.40;98.90;;;;;;5050731;28;20210;-61
2021/03/10 02:53:24;;;;;;;30.10;21.00;;;8.40;99.00;;;;;;5050649;28;20201;-61
2021/03/10 02:55:51;;;;;;;34.37;20.67;;;8.40;99.00;;;;;;5051129;28;20206;-61
2021/03/10 02:58:17;;;;;;;31.33;21.77;;;8.30;98.90;;;;;;5051392;28;20233;-62
2021/03/10 03:00:44;;;;;;;29.57;21.50;;;8.30;99.00;;;;;;5051671;28;20217;-61
2021/03/10 03:03:11;;;;;;;33.20;21.43;;;8.30;99.10;;;;;;5051893;28;20685;-62
2021/03/10 03:05:38;;;;;;;32.17;21.90;;;8.30;99.10;;;;;;5052174;28;20205;-63
2021/03/10 03:08:06;;;;;;;31.40;22.63;;;8.30;99.30;;;;;;5051660;28;20217;-62
2021/03/10 03:10:36;;;;;;;30.97;21.47;;;8.20;99.30;;;;;;5051449;28;20284;-62
2021/03/10 03:13:03;;;;;;;30.33;20.53;;;8.30;99.40;;;;;;5051502;28;20205;-62
2021/03/10 03:15:31;;;;;;;35.00;21.93;;;8.30;99.50;;;;;;5051102;28;20216;-62
2021/03/10 03:18:00;;;;;;;35.73;22.20;;;8.30;99.50;;;;;;5050943;28;20232;-62
2021/03/10 03:20:27;;;;;;;33.03;22.40;;;8.30;99.40;;;;;;5050973;28;20214;-62
2021/03/10 03:22:55;;;;;;;34.10;22.17;;;8.30;99.40;;;;;;5050915;28;20811;-61
2021/03/10 03:25:24;;;;;;;31.70;22.57;;;8.40;99.50;;;;;;5050667;28;20220;-62
2021/03/10 03:27:54;;;;;;;29.90;21.33;;;8.40;99.40;;;;;;5050807;28;20233;-62
2021/03/10 03:30:22;;;;;;;31.17;21.73;;;8.40;99.50;;;;;;5050840;28;20210;-62
2021/03/10 03:32:49;;;;;;;31.23;21.97;;;8.40;99.50;;;;;;5050805;28;20216;-63
2021/03/10 03:35:17;;;;;;;32.47;22.20;;;8.40;99.50;;;;;;5050600;28;20212;-62
2021/03/10 03:37:47;;;;;;;30.10;22.10;;;8.40;99.50;;;;;;5050485;28;20237;-62
2021/03/10 03:40:13;;;;;;;36.43;22.90;;;8.40;99.50;;;;;;5051471;28;20209;-62
2021/03/10 03:42:40;;;;;;;33.17;21.60;;;8.40;99.50;;;;;;5051008;28;20205;-61
2021/03/10 03:45:09;;;;;;;34.00;22.07;;;8.40;99.60;;;;;;5050738;28;20208;-62
2021/03/10 03:47:35;;;;;;;38.10;23.67;;;8.30;99.60;;;;;;5050805;28;20218;-61
2021/03/10 03:50:03;;;;;;;35.60;22.43;;;8.30;99.60;;;;;;5050425;28;20205;-61
2021/03/10 03:52:29;;;;;;;33.87;23.60;;;8.30;99.70;;;;;;5050592;28;20210;-62
2021/03/10 03:54:56;;;;;;;33.63;23.33;;;8.30;99.70;;;;;;5051261;28;20233;-61
2021/03/10 03:57:22;;;;;;;32.37;23.00;;;8.30;99.70;;;;;;5051205;28;20241;-61
2021/03/10 03:59:48;;;;;;;34.67;22.90;;;8.40;99.80;;;;;;5051259;28;20210;-62
2021/03/10 04:02:15;;;;;;;31.00;22.17;;;8.40;99.80;;;;;;5051458;28;20259;-62
2021/03/10 04:04:41;;;;;;;33.13;23.30;;;8.40;99.80;;;;;;5054549;28;20205;-62
2021/03/10 04:07:07;;;;;;;34.27;23.27;;;8.50;99.70;;;;;;5055077;28;20232;-61
2021/03/10 04:09:33;;;;;;;32.30;22.33;;;8.40;99.70;;;;;;5054711;28;20209;-61
2021/03/10 04:12:02;;;;;;;32.57;22.97;;;8.40;99.70;;;;;;5055130;28;20386;-61
2021/03/10 04:14:28;;;;;;;33.20;22.83;;;8.40;99.70;;;;;;5054386;28;20300;-62
2021/03/10 04:16:54;;;;;;;35.17;23.30;;;8.50;99.80;;;;;;5054360;28;20229;-61
2021/03/10 04:19:22;;;;;;;37.23;22.77;;;8.50;99.80;;;;;;5054024;28;20201;-62
2021/03/10 04:21:48;;;;;;;35.90;23.50;;;8.50;99.80;;;;;;5054408;28;20213;-62
2021/03/10 04:24:14;;;;;;;32.10;21.47;;;8.40;99.80;;;;;;5054176;28;20633;-62
2021/03/10 04:26:40;;;;;;;32.93;22.67;;;8.40;99.80;;;;;;5054431;28;20202;-62
2021/03/10 04:29:07;;;;;;;35.13;22.07;;;8.40;99.90;;;;;;5054109;28;20205;-62
2021/03/10 04:31:33;;;;;;;33.20;23.10;;;8.30;99.90;;;;;;5053979;28;20209;-62
2021/03/10 04:34:00;;;;;;;34.47;22.77;;;8.30;99.90;;;;;;5053826;28;20212;-61
2021/03/10 04:36:26;;;;;;;33.87;22.57;;;8.30;99.90;;;;;;5054353;28;20228;-61
2021/03/10 04:38:52;;;;;;;32.47;23.20;;;8.30;99.90;;;;;;5053921;28;20240;-61
2021/03/10 04:41:19;;;;;;;35.30;23.20;;;8.40;99.90;;;;;;5054066;28;20206;-62
2021/03/10 04:43:45;;;;;;;33.80;23.90;;;8.40;99.90;;;;;;5054299;28;20267;-62
2021/03/10 04:46:12;;;;;;;34.00;22.03;;;8.30;99.90;;;;;;5054128;28;20204;-62
2021/03/10 04:48:38;;;;;;;34.93;23.27;;;8.30;99.90;;;;;;5053551;28;20225;-61
2021/03/10 04:51:04;;;;;;;31.73;22.93;;;8.30;99.90;;;;;;5054026;28;20235;-61
2021/03/10 04:53:31;;;;;;;33.43;22.50;;;8.40;99.90;;;;;;5054044;28;20259;-62
2021/03/10 04:55:58;;;;;;;33.20;23.40;;;8.30;99.90;;;;;;5054120;28;20206;-62
2021/03/10 04:58:24;;;;;;;35.13;23.07;;;8.30;99.90;;;;;;5053631;28;20229;-62
2021/03/10 05:00:50;;;;;;;32.23;22.43;;;8.30;99.90;;;;;;5053478;28;20205;-61
2021/03/10 05:03:17;;;;;;;36.63;24.27;;;8.30;99.90;;;;;;5053386;28;20642;-61
2021/03/10 05:05:43;;;;;;;37.80;23.57;;;8.30;99.90;;;;;;5053303;28;20206;-61
2021/03/10 05:08:10;;;;;;;38.90;22.90;;;8.30;99.90;;;;;;5053178;28;20226;-62
2021/03/10 05:10:37;;;;;;;38.50;24.23;;;8.30;99.90;;;;;;5053461;28;20206;-61
2021/03/10 05:13:03;;;;;;;36.07;23.47;;;8.30;99.90;;;;;;5053115;28;20275;-62
2021/03/10 05:15:29;;;;;;;33.90;23.17;;;8.30;99.90;;;;;;5052233;28;20213;-61
2021/03/10 05:17:56;;;;;;;35.67;23.20;;;8.30;99.90;;;;;;5052634;28;20241;-62
2021/03/10 05:20:23;;;;;;;34.80;23.17;;;8.30;99.90;;;;;;5053159;28;20236;-61
2021/03/10 05:22:49;;;;;;;36.03;22.67;;;8.40;99.90;;;;;;5053097;28;20232;-62
2021/03/10 05:25:15;;;;;;;35.97;23.83;;;8.40;99.90;;;;;;5052621;28;20683;-62
2021/03/10 05:27:41;;;;;;;31.23;22.27;;;8.30;99.90;;;;;;5052821;28;20276;-63
2021/03/10 05:30:10;;;;;;;34.10;22.87;;;8.30;99.90;;;;;;5052913;28;20209;-62
2021/03/10 05:32:37;;;;;;;34.40;22.63;;;8.30;99.90;;;;;;5053568;28;20213;-61
2021/03/10 05:35:04;;;;;;;39.27;24.87;;;8.30;99.90;;;;;;5053591;28;20209;-62
2021/03/10 05:37:31;;;;;;;34.10;24.87;;;8.30;99.90;;;;;;5053124;28;20225;-62
2021/03/10 05:39:57;;;;;;;32.40;22.87;;;8.30;99.90;;;;;;5053590;28;20487;-62
2021/03/10 05:42:23;;;;;;;33.13;23.43;;;8.30;99.90;;;;;;5053510;28;20721;-62
2021/03/10 05:44:50;;;;;;;34.33;23.47;;;8.30;99.90;;;;;;5053465;28;20274;-62
2021/03/10 05:47:18;;;;;;;34.13;22.97;;;8.40;99.90;;;;;;5052925;28;20253;-61
2021/03/10 05:49:45;;;;;;;33.10;23.53;;;8.30;99.90;;;;;;5052474;28;20214;-61
2021/03/10 05:52:13;;;;;;;35.27;23.43;;;8.30;99.90;;;;;;5052239;28;20639;-62
2021/03/10 05:54:43;;;;;;;33.93;23.97;;;8.30;99.90;;;;;;5052109;28;20205;-61
2021/03/10 05:57:09;;;;;;;34.77;23.30;;;8.30;99.90;;;;;;5052139;28;20256;-62
2021/03/10 05:59:35;;;;;;;36.00;23.40;;;8.30;99.90;;;;;;5051843;28;20209;-62
2021/03/10 06:02:02;;;;;;;34.63;23.33;;;8.30;99.90;;;;;;5052174;28;20206;-61
2021/03/10 06:04:37;;;;;;;35.47;23.37;;;8.30;99.90;;;;;;5051848;28;20251;-61
2021/03/10 06:07:04;;;;;;;37.10;25.10;;;8.30;99.90;;;;;;5051949;28;20236;-62
2021/03/10 06:09:30;;;;;;;34.73;23.17;;;8.30;99.90;;;;;;5052267;28;20206;-64
2021/03/10 06:11:58;;;;;;;39.17;24.57;;;8.30;99.90;;;;;;5052150;28;20693;-62
2021/03/10 06:14:26;;;;;;;34.50;23.53;;;8.30;99.90;;;;;;5051824;28;20240;-62
2021/03/10 06:17:03;;;;;;;38.83;25.23;;;8.30;99.90;;;;;;5051846;28;20451;-62
2021/03/10 06:19:30;;;;;;;37.60;24.00;;;8.30;99.90;;;;;;5051850;28;20204;-62
2021/03/10 06:21:56;;;;;;;36.03;23.90;;;8.30;99.90;;;;;;5052192;28;20217;-61
2021/03/10 06:24:32;;;;;;;35.87;24.60;;;8.40;99.90;;;;;;5052106;28;20217;-62
2021/03/10 06:26:59;;;;;;;38.73;24.10;;;8.40;99.90;;;;;;5051814;28;20701;-62
2021/03/10 06:29:25;;;;;;;35.53;23.43;;;8.50;99.90;;;;;;5051969;28;20259;-62
2021/03/10 06:32:01;;;;;;;34.80;24.07;;;8.50;99.90;;;;;;5051862;28;20247;-62
2021/03/10 06:34:28;;;;;;;35.07;24.17;;;8.50;99.90;;;;;;5052069;28;20201;-62
2021/03/10 06:36:54;;;;;;;34.67;22.83;;;8.60;99.90;;;;;;5051941;28;20705;-62
2021/03/10 06:39:25;;;;;;;38.17;24.40;;;8.60;99.90;;;;;;5052576;28;20565;-62
2021/03/10 06:41:52;;;;;;;38.60;25.97;;;8.60;99.90;;;;;;5052044;28;20216;-62
2021/03/10 06:44:22;;;;;;;32.57;23.33;;;8.60;99.90;;;;;;5051959;28;20210;-62
2021/03/10 06:46:53;;;;;;;33.57;23.53;;;8.60;99.90;;;;;;5051723;28;20202;-62
2021/03/10 06:49:20;;;;;;;35.80;22.57;;;8.70;99.90;;;;;;5051447;28;20312;-62
2021/03/10 06:51:53;;;;;;;32.90;23.40;;;8.70;99.90;;;;;;5051531;28;20575;-62
2021/03/10 06:54:20;;;;;;;37.07;23.23;;;8.70;99.80;;;;;;5051173;28;20206;-61
2021/03/10 06:56:57;;;;;;;39.07;24.00;;;8.80;99.80;;;;;;5051179;28;20570;-61
2021/03/10 06:59:24;;;;;;;45.13;25.03;;;8.90;99.80;;;;;;5050980;28;20565;-61
2021/03/10 07:01:50;;;;;;;40.40;24.20;;;9.00;99.90;;;;;;5051049;28;20278;-61
2021/03/10 07:04:17;;;;;;;37.53;23.93;;;9.10;99.90;;;;;;5051230;28;20408;-63
2021/03/10 07:06:43;;;;;;;39.40;24.90;;;9.20;99.90;;;;;;5051084;28;20209;-60
2021/03/10 07:09:13;;;;;;;32.27;23.47;;;9.20;99.90;;;;;;5051276;28;20205;-60
2021/03/10 07:11:40;;;;;;;40.90;25.23;;;9.20;99.90;;;;;;5051313;28;20210;-61
2021/03/10 07:14:07;;;;;;;35.47;23.80;;;9.30;99.90;;;;;;5051008;28;20205;-60
2021/03/10 07:16:34;;;;;;;34.67;22.33;;;9.50;99.80;;;;;;5050748;28;20237;-60
2021/03/10 07:19:01;;;;;;;33.43;23.90;;;9.60;99.60;;;;;;5051178;28;20210;-61
2021/03/10 07:21:32;;;;;;;35.07;23.40;;;9.80;99.50;;;;;;5050743;28;20696;-61
2021/03/10 07:24:00;;;;;;;36.60;24.23;;;9.90;99.10;;;;;;5050973;28;20217;-60
2021/03/10 07:26:27;;;;;;;34.80;23.10;;;10.00;98.40;;;;;;5050604;28;20246;-60
2021/03/10 07:28:57;;;;;;;34.83;24.97;;;10.10;98.10;;;;;;5050583;28;20232;-60
2021/03/10 07:31:24;;;;;;;35.57;22.73;;;10.30;98.00;;;;;;5050918;28;20209;-61
2021/03/10 07:33:56;;;;;;;35.47;23.33;;;10.40;97.40;;;;;;5050847;28;20233;-61
2021/03/10 07:36:33;;;;;;;33.87;21.93;;;10.60;97.20;;;;;;5050703;28;20217;-60
2021/03/10 07:38:59;;;;;;;37.30;22.27;;;10.70;96.50;;;;;;5053236;28;20202;-61
2021/03/10 07:41:35;;;;;;;32.40;23.20;;;10.90;96.50;;;;;;5054420;28;20213;-60
2021/03/10 07:44:01;;;;;;;31.00;22.90;;;11.00;96.30;;;;;;5054390;28;20212;-60
2021/03/10 07:46:30;;;;;;;34.90;23.43;;;11.10;96.00;;;;;;5054599;28;20217;-60
2021/03/10 07:48:58;;;;;;;31.70;22.47;;;11.20;95.70;;;;;;5054264;28;20259;-60
2021/03/10 07:51:30;;;;;;;32.27;22.93;;;11.30;95.40;;;;;;5054686;28;20286;-61
2021/03/10 07:53:57;;;;;;;31.70;22.47;;;11.30;95.30;;;;;;5054119;28;20692;-61
2021/03/10 07:56:28;;;;;;;31.57;21.47;;;11.20;95.10;;;;;;5054678;28;20213;-61
2021/03/10 07:59:06;;;;;;;31.10;23.07;;;11.30;95.10;;;;;;5054770;28;20247;-61
2021/03/10 08:01:32;;;;;;;33.27;23.33;;;11.30;95.10;;;;;;5055477;28;20292;-61
2021/03/10 08:04:08;;;;;;;29.87;22.03;;;11.40;94.90;;;;;;5054140;28;20692;-61
2021/03/10 08:06:41;;;;;;;30.90;21.73;;;11.50;94.80;;;;;;5054527;28;20213;-61
2021/03/10 08:09:08;;;;;;;31.03;20.63;;;11.60;94.30;;;;;;5054495;28;20201;-61
2021/03/10 08:11:36;;;;;;;29.23;21.80;;;11.60;94.20;;;;;;5054416;28;20220;-61
2021/03/10 08:14:02;;;;;;;31.47;24.30;;;11.70;94.20;;;;;;5054289;28;20677;-60
2021/03/10 08:16:29;;;;;;;31.07;22.97;;;11.70;94.20;;;;;;5054390;28;20238;-60
2021/03/10 08:18:56;;;;;;;31.50;22.20;;;11.70;94.20;;;;;;5054344;28;20202;-60
2021/03/10 08:21:23;;;;;;;30.70;22.73;;;11.80;94.20;;;;;;5054795;28;20213;-60
2021/03/10 08:23:50;;;;;;;30.83;23.43;;;11.70;94.00;;;;;;5054454;28;20209;-60
2021/03/10 08:26:18;;;;;;;32.10;21.57;;;11.70;93.90;;;;;;5054479;28;20202;-60
2021/03/10 08:28:44;;;;;;;29.60;22.70;;;11.70;94.10;;;;;;5054132;28;20229;-60
2021/03/10 08:31:11;;;;;;;30.80;22.73;;;11.80;94.10;;;;;;5054297;28;20206;-60
2021/03/10 08:33:48;;;;;;;30.90;22.33;;;11.90;93.70;;;;;;5053954;28;20205;-59
2021/03/10 08:36:15;;;;;;;31.73;22.13;;;11.90;93.70;;;;;;5054170;28;20209;-60
2021/03/10 08:38:43;;;;;;;30.03;22.57;;;11.80;93.80;;;;;;5053915;28;20602;-59
2021/03/10 08:41:09;;;;;;;35.30;22.67;;;11.80;93.90;;;;;;5053451;28;20316;-62
2021/03/10 08:43:36;;;;;;;35.83;22.27;;;11.90;93.70;;;;;;5053510;28;20205;-60
2021/03/10 08:46:03;;;;;;;33.53;23.83;;;12.00;93.40;;;;;;5053418;28;20339;-60
2021/03/10 08:48:33;;;;;;;29.87;22.17;;;12.00;93.40;;;;;;5053385;28;20279;-61
2021/03/10 08:51:01;;;;;;;31.23;22.87;;;12.10;93.20;;;;;;5053550;28;20216;-61
2021/03/10 08:53:27;;;;;;;30.57;22.87;;;12.20;93.10;;;;;;5053108;28;20643;-61
2021/03/10 08:56:03;;;;;;;28.20;21.57;;;12.30;93.00;;;;;;5053303;28;20210;-61
2021/03/10 08:58:30;;;;;;;30.87;21.70;;;12.40;93.00;;;;;;5079775;22;20233;-59
2021/03/10 09:00:56;;;;;;;29.20;21.90;;;12.60;92.80;;;;;;5073281;28;20205;-58
2021/03/10 09:03:22;;;;;;;32.27;22.53;;;12.90;92.40;;;;;;5073178;28;20255;-58
2021/03/10 09:05:49;;;;;;;26.90;20.50;;;13.20;92.20;;;;;;5073011;28;20231;-58
2021/03/10 09:08:17;;;;;;;28.57;22.07;;;13.60;91.80;;;;;;5072819;28;20229;-58
2021/03/10 09:10:47;;;;;;;32.13;22.27;;;13.90;91.20;;;;;;5072923;28;20216;-59
2021/03/10 09:13:14;;;;;;;30.13;22.00;;;14.00;91.10;;;;;;5072931;28;20613;-58
2021/03/10 09:15:40;;;;;;;35.97;22.47;;;14.00;90.80;;;;;;5074746;28;20694;-59
2021/03/10 09:18:08;;;;;;;35.47;23.80;;;14.00;90.70;;;;;;5075301;28;20229;-59
2021/03/10 09:20:37;;;;;;;28.53;22.17;;;13.90;90.60;;;;;;5073740;28;20201;-59
2021/03/10 09:23:04;;;;;;;29.53;22.30;;;14.00;91.00;;;;;;5072766;28;20205;-60
2021/03/10 09:25:31;;;;;;;28.77;21.60;;;14.00;90.50;;;;;;5072180;28;20205;-60
2021/03/10 09:28:06;;;;;;;28.70;21.33;;;13.90;90.50;;;;;;5072342;28;20221;-58
2021/03/10 09:30:34;;;;;;;28.13;21.50;;;14.00;90.50;;;;;;5072725;28;20204;-58
2021/03/10 09:33:01;;;;;;;31.80;21.70;;;14.00;90.20;;;;;;5072652;28;20585;-58
2021/03/10 09:35:31;;;;;;;29.77;21.70;;;14.10;90.20;;;;;;5072297;28;20278;-59
2021/03/10 09:37:59;;;;;;;26.17;20.47;;;14.30;89.40;;;;;;5071700;28;20232;-58
2021/03/10 09:40:35;;;;;;;26.23;20.57;;;14.20;88.20;;;;;;5072521;28;20209;-58
2021/03/10 09:43:03;;;;;;;30.80;21.00;;;14.30;88.40;;;;;;5072722;28;20628;-58
2021/03/10 09:45:33;;;;;;;27.13;18.93;;;14.40;88.10;;;;;;5072412;28;20395;-58
2021/03/10 09:48:00;;;;;;;25.77;19.90;;;14.50;86.90;;;;;;5072321;28;20228;-58
2021/03/10 09:50:28;;;;;;;26.00;19.20;;;14.40;86.30;;;;;;5072159;28;20205;-58
2021/03/10 09:52:56;;;;;;;27.43;19.83;;;14.30;86.10;;;;;;5072395;28;20201;-59
2021/03/10 09:55:24;;;;;;;28.17;20.50;;;14.30;86.20;;;;;;5071768;28;20707;-59
2021/03/10 09:58:01;;;;;;;29.37;19.37;;;14.30;86.90;;;;;;5071441;28;20267;-59
2021/03/10 10:00:27;;;;;;;22.93;17.63;;;14.60;86.20;;;;;;5071432;28;20755;-59
2021/03/10 10:02:54;;;;;;;24.10;18.20;;;14.80;83.00;;;;;;5071981;28;20208;-59
2021/03/10 10:05:25;;;;;;;22.13;17.30;;;14.90;82.80;;;;;;5071835;28;20216;-59
2021/03/10 10:07:52;;;;;;;23.57;17.80;;;15.00;81.40;;;;;;5072163;28;20221;-59
2021/03/10 10:10:18;;;;;;;23.60;17.53;;;15.00;81.30;;;;;;5071710;28;20631;-59
2021/03/10 10:12:46;;;;;;;24.63;18.17;;;15.00;81.30;;;;;;5071597;28;20425;-59
2021/03/10 10:15:13;;;;;;;23.87;17.57;;;14.80;81.20;;;;;;5071614;28;20204;-61
2021/03/10 10:17:48;;;;;;;24.43;17.37;;;14.60;81.00;;;;;;5071000;28;20228;-59
2021/03/10 10:20:16;;;;;;;19.97;15.93;;;14.40;82.30;;;;;;5069652;28;20679;-58
2021/03/10 10:22:44;;;;;;;21.17;15.73;;;14.40;80.80;;;;;;5069919;28;20676;-59
2021/03/10 10:25:12;;;;;;;20.93;15.33;;;14.40;79.00;;;;;;5071367;28;20208;-60
2021/03/10 10:27:39;;;;;;;22.67;16.17;;;14.60;79.50;;;;;;5071142;28;20228;-59
2021/03/10 10:30:06;;;;;;;21.10;15.67;;;14.80;78.90;;;;;;5071134;28;20205;-58
2021/03/10 10:32:33;;;;;;;22.70;16.57;;;14.90;78.30;;;;;;5079875;28;20201;-59
2021/03/10 10:34:59;;;;;;;19.30;15.07;;;14.90;77.80;;;;;;5091891;28;20211;-59
2021/03/10 10:37:26;;;;;;;21.10;14.50;;;14.80;75.90;;;;;;5091591;28;20232;-60
2021/03/10 10:39:52;;;;;;;19.33;14.80;;;14.80;76.00;;;;;;5091555;28;20254;-60
2021/03/10 10:42:19;;;;;;;23.17;14.13;;;14.60;75.40;;;;;;5091163;28;20216;-59
2021/03/10 10:44:47;;;;;;;18.53;14.23;;;14.40;76.30;;;;;;5091004;28;20668;-59
2021/03/10 10:47:13;;;;;;;17.13;13.87;;;14.30;76.80;;;;;;5091095;28;20229;-59
2021/03/10 10:49:39;;;;;;;17.80;13.50;;;14.10;76.70;;;;;;5090733;28;20223;-57
2021/03/10 10:52:05;;;;;;;18.53;12.90;;;14.00;76.10;;;;;;5091072;28;20204;-59
2021/03/10 10:54:32;;;;;;;16.60;13.03;;;13.90;76.20;;;;;;5073776;28;20201;-59
2021/03/10 10:56:58;;;;;;;14.33;10.80;;;13.70;76.80;;;;;;5070532;28;20205;-58
2021/03/10 10:59:25;;;;;;;15.87;11.23;;;13.80;75.70;;;;;;5071094;28;20201;-59
2021/03/10 11:01:51;;;;;;;15.17;11.87;;;14.00;74.00;;;;;;5070723;28;20568;-59
2021/03/10 11:04:17;;;;;;;17.17;11.87;;;14.20;74.60;;;;;;5070617;28;20757;-60
2021/03/10 11:06:44;;;;;;;15.60;12.20;;;14.40;73.50;;;;;;5071088;28;20216;-59
2021/03/10 11:09:10;;;;;;;16.23;12.53;;;14.70;72.70;;;;;;5070687;28;20228;-59
2021/03/10 11:11:37;;;;;;;12.20;9.47;;;14.90;72.30;;;;;;5070769;28;20246;-59
2021/03/10 11:14:03;;;;;;;11.77;8.73;;;15.10;68.50;;;;;;5069491;28;20208;-60
2021/03/10 11:16:30;;;;;;;11.03;8.10;;;15.40;66.70;;;;;;5070553;28;20695;-58
2021/03/10 11:18:56;;;;;;;15.17;8.57;;;15.60;65.50;;;;;;5070230;28;20233;-59
2021/03/10 11:21:23;;;;;;;13.03;9.80;;;15.70;64.50;;;;;;5071128;28;20299;-57
2021/03/10 11:23:49;;;;;;;13.83;9.87;;;15.80;65.70;;;;;;5070523;28;20295;-57
2021/03/10 11:26:15;;;;;;;15.87;10.97;;;15.60;65.60;;;;;;5069923;28;20201;-59
2021/03/10 11:28:42;;;;;;;14.40;10.70;;;15.60;66.80;;;;;;5070065;28;20244;-57
2021/03/10 11:31:09;;;;;;;11.80;9.63;;;15.60;66.90;;;;;;5070722;28;20223;-57
2021/03/10 11:33:35;;;;;;;14.63;10.13;;;15.50;65.30;;;;;;5070222;28;20208;-57
2021/03/10 11:36:02;;;;;;;16.87;8.37;;;15.30;65.10;;;;;;5070874;28;20256;-57
2021/03/10 11:38:28;;;;;;;10.07;7.40;;;15.20;63.50;;;;;;5069829;28;20224;-57
2021/03/10 11:40:55;;;;;;;11.50;8.10;;;15.00;63.20;;;;;;5070219;28;20267;-59
2021/03/10 11:43:21;;;;;;;11.87;8.23;;;14.60;64.20;;;;;;5070704;28;20262;-58
2021/03/10 11:45:49;;;;;;;10.77;7.40;;;14.70;64.10;;;;;;5070401;28;20213;-58
2021/03/10 11:48:16;;;;;;;7.00;5.67;;;14.80;63.70;;;;;;5070469;28;20221;-59
2021/03/10 11:50:42;;;;;;;9.47;6.10;;;15.00;61.00;;;;;;5070505;28;20205;-57
2021/03/10 11:53:09;;;;;;;9.83;6.83;;;14.90;60.50;;;;;;5070456;28;20627;-59
2021/03/10 11:55:36;;;;;;;8.63;6.90;;;14.80;62.00;;;;;;5055123;28;20263;-58
2021/03/10 11:58:02;;;;;;;7.47;6.00;;;14.90;61.70;;;;;;5049784;28;20233;-59
2021/03/10 12:00:29;;;;;;;8.40;6.47;;;15.20;59.00;;;;;;5050238;28;20213;-59
2021/03/10 12:02:56;;;;;;;9.00;7.03;;;15.20;59.50;;;;;;5050201;28;20206;-59
2021/03/10 12:05:23;;;;;;;10.80;7.57;;;15.40;59.90;;;;;;5049843;28;20212;-59
2021/03/10 12:07:49;;;;;;;9.67;8.10;;;15.60;59.30;;;;;;5049935;28;20225;-59
2021/03/10 12:10:16;;;;;;;13.03;8.73;;;15.80;59.90;;;;;;5049900;28;20205;-58
2021/03/10 12:12:43;;;;;;;9.17;7.60;;;16.00;59.50;;;;;;5050132;28;20206;-58
2021/03/10 12:15:11;;;;;;;11.63;8.60;;;15.90;58.90;;;;;;5049938;28;20214;-58
2021/03/10 12:17:38;;;;;;;10.73;7.80;;;15.80;59.50;;;;;;5050005;28;20267;-59
2021/03/10 12:20:07;;;;;;;12.03;8.30;;;15.80;59.40;;;;;;5049977;28;20210;-58
2021/03/10 12:22:34;;;;;;;11.90;8.07;;;16.10;58.90;;;;;;5050028;28;20630;-59
2021/03/10 12:25:00;;;;;;;12.00;8.10;;;16.00;59.00;;;;;;5052588;28;20221;-59
2021/03/10 12:27:26;;;;;;;10.93;8.10;;;16.20;59.20;;;;;;5054335;28;20225;-58
2021/03/10 12:29:53;;;;;;;12.67;8.50;;;16.10;58.80;;;;;;5062151;28;20259;-59
2021/03/10 12:32:20;;;;;;;11.40;8.43;;;15.90;58.80;;;;;;5073406;28;20215;-58
2021/03/10 12:34:46;;;;;;;11.43;7.60;;;15.80;59.40;;;;;;5073373;28;20680;-58